Terminal Aerodrome Forecast
Issued by NWS Tampa Bay Area, FL

Home | Current Version | Previous Version | Text Only | Print | Product List | Glossary On
Versions: 1 2 3 4 5 6 7 8 9 10 11 12 13 14 15 16 17 18 19 20 21 22 23 24 25 26 27 28 29 30 31
000
FTUS42 KTBW 021724
TAFTPA
TAF
KTPA 021724Z 0218/0318 VRB06KT 6SM SHRA VCTS SCT025CB BKN040 OVC120
      TEMPO 0218/0222 3SM TSRA SCT007 BKN025CB
     FM022200 VRB05KT P6SM VCSH SCT030 BKN050 BKN120
     FM030600 VRB04KT P6SM FEW025 SCT050 BKN250
     FM031200 VRB06KT P6SM SCT035 BKN250=

USA.gov is the U.S. government's official web portal to all federal, state and local government web resources and services.